This is the latest recevied weather packets stored in our database for station/object WX4ET. If no packets are shown the sender has not sent any weather packets the latest 10 day(s).
| Time | Temp. | Humidity | Pressure | Rain* | Wind** | Luminosity | Snow |
|---|---|---|---|---|---|---|---|
| 1777664302 | 22.22° C | 44% | 1006.9 hPa | 0 mm | - | 561 W/m² | - |
| 1777664001 | 21.67° C | 38% | 1007.3 hPa | 0 mm | - | 588 W/m² | - |
| 1777663698 | 21.67° C | 39% | 1007.4 hPa | 0 mm | - | 325 W/m² | - |
| 1777663395 | 21.67° C | 41% | 1007.3 hPa | 0 mm | - | 495 W/m² | - |
| 1777663092 | 21.11° C | 38% | 1007.3 hPa | 0 mm | - | 409 W/m² | - |
| 1777662789 | 21.67° C | 37% | 1007.4 hPa | 0 mm | - | 484 W/m² | - |
| 1777662485 | 21.67° C | 37% | 1007.4 hPa | 0 mm | - | 528 W/m² | - |
| 1777662181 | 21.67° C | 37% | 1007.6 hPa | 0 mm | - | 465 W/m² | - |
| 1777661877 | 21.67° C | 35% | 1007.6 hPa | 0 mm | - | 558 W/m² | - |
| 1777661573 | 21.11° C | 36% | 1007.7 hPa | 0 mm | - | 534 W/m² | - |
| 1777661269 | 21.11° C | 40% | 1007.9 hPa | 0 mm | - | 435 W/m² | - |
| 1777660964 | 21.11° C | 34% | 1008 hPa | 0 mm | - | 465 W/m² | - |
| 1777660661 | 20.56° C | 36% | 1008 hPa | 0 mm | - | 487 W/m² | - |
| 1777660358 | 21.11° C | 40% | 1007.6 hPa | 0 mm | - | 606 W/m² | - |
| 1777660054 | 21.11° C | 36% | 1007.9 hPa | 0 mm | - | 621 W/m² | - |
| 1777659751 | 21.67° C | 38% | 1008 hPa | 0 mm | - | 644 W/m² | - |
| 1777659448 | 20.56° C | 40% | 1007.9 hPa | 0 mm | - | 627 W/m² | - |
| 1777659146 | 20.56° C | 37% | 1007.8 hPa | 0 mm | - | 649 W/m² | - |
| 1777658843 | 20.56° C | 37% | 1007.8 hPa | 0 mm | - | 643 W/m² | - |
| 1777658539 | 20.56° C | 37% | 1008 hPa | 0 mm | - | 672 W/m² | - |
| 1777658236 | 20.56° C | 40% | 1008.1 hPa | 0 mm | - | 684 W/m² | - |
| 1777657933 | 20° C | 44% | 1007.9 hPa | 0 mm | - | 681 W/m² | - |
| 1777657629 | 20.56° C | 42% | 1008 hPa | 0 mm | - | 553 W/m² | - |
| 1777657327 | 20° C | 48% | 1007.9 hPa | 0 mm | - | 546 W/m² | - |
| 1777657024 | 20° C | 47% | 1007.8 hPa | 0 mm | - | 557 W/m² | - |
* Rain latest hour (hover to see other rain measurements)
** Current wind speed in m/s (hover to see current wind gust speed)